createdAt,value
2023-02-02T00:01:38.069Z,6.80
2023-02-02T00:03:41.270Z,6.80
2023-02-02T00:05:47.660Z,6.70
2023-02-02T00:07:51.705Z,6.80
2023-02-02T00:09:54.430Z,6.80
2023-02-02T00:11:57.887Z,6.80
2023-02-02T00:14:01.090Z,6.90
2023-02-02T00:16:36.648Z,6.80
2023-02-02T00:18:39.396Z,6.80
2023-02-02T00:20:42.101Z,6.80
2023-02-02T00:22:44.786Z,6.60
2023-02-02T00:24:48.870Z,6.70
2023-02-02T00:26:53.879Z,6.80
2023-02-02T00:28:56.649Z,6.70
2023-02-02T00:30:59.424Z,6.80
2023-02-02T00:33:02.165Z,6.50
2023-02-02T00:35:04.961Z,6.60
2023-02-02T00:37:07.634Z,6.60
2023-02-02T00:39:11.631Z,6.60
2023-02-02T00:41:17.302Z,6.80
2023-02-02T00:43:20.073Z,6.70
2023-02-02T00:45:22.286Z,6.50
2023-02-02T00:47:25.121Z,6.60
2023-02-02T00:49:28.003Z,6.90
2023-02-02T00:51:30.728Z,6.70
2023-02-02T00:53:33.438Z,6.50
2023-02-02T00:55:36.140Z,6.60
2023-02-02T00:57:41.233Z,6.60
2023-02-02T00:59:44.314Z,6.70
2023-02-02T01:01:47.150Z,6.40
2023-02-02T01:03:50.285Z,6.40
2023-02-02T01:05:53.028Z,6.80
2023-02-02T01:07:55.842Z,6.70
2023-02-02T01:09:58.603Z,6.70
2023-02-02T01:12:01.296Z,6.70
2023-02-02T01:14:05.847Z,6.70
2023-02-02T01:16:08.682Z,6.40
2023-02-02T01:18:11.455Z,6.10
2023-02-02T01:20:18.419Z,6.50
2023-02-02T01:22:21.128Z,6.50
2023-02-02T01:24:23.879Z,6.40
2023-02-02T01:26:26.673Z,6.60
2023-02-02T01:28:29.784Z,6.60
2023-02-02T01:30:33.844Z,6.70
2023-02-02T01:32:36.566Z,6.80
2023-02-02T01:34:41.646Z,6.80
2023-02-02T01:36:44.345Z,6.60
2023-02-02T01:38:47.575Z,6.50
2023-02-02T01:40:52.172Z,6.60
2023-02-02T01:42:55.394Z,6.60
2023-02-02T01:45:14.337Z,6.50
2023-02-02T01:47:19.384Z,6.50
2023-02-02T01:49:23.296Z,6.50
2023-02-02T01:51:32.865Z,6.40
2023-02-02T01:53:35.865Z,6.50
2023-02-02T01:55:41.504Z,6.60
2023-02-02T01:57:50.765Z,6.60
2023-02-02T01:59:55.276Z,6.50
2023-02-02T02:01:58.543Z,6.60
2023-02-02T02:04:02.889Z,6.70
2023-02-02T02:06:09.290Z,7.00
2023-02-02T02:08:19.831Z,6.90
2023-02-02T02:10:22.667Z,7.00
2023-02-02T02:12:25.474Z,6.80
2023-02-02T02:14:47.205Z,6.70
2023-02-02T02:17:01.841Z,6.60
2023-02-02T02:19:19.755Z,6.90
2023-02-02T02:21:52.965Z,6.70
2023-02-02T02:24:56.326Z,6.90
2023-02-02T02:27:25.963Z,6.60
2023-02-02T02:29:57.348Z,6.60
2023-02-02T02:32:14.455Z,6.50
2023-02-02T02:34:22.541Z,6.30
2023-02-02T02:36:33.996Z,6.50
2023-02-02T02:38:39.782Z,6.50
2023-02-02T02:40:47.240Z,6.50
2023-02-02T02:42:56.549Z,6.70
2023-02-02T02:45:03.692Z,6.70
2023-02-02T02:47:07.815Z,6.60
2023-02-02T02:49:12.084Z,6.60
2023-02-02T02:51:40.767Z,6.60
2023-02-02T02:53:43.546Z,6.60
2023-02-02T02:55:54.418Z,6.50
2023-02-02T02:58:06.271Z,6.60
2023-02-02T03:00:22.981Z,6.60
2023-02-02T03:02:37.239Z,6.80
2023-02-02T03:04:49.495Z,6.60
2023-02-02T03:06:57.116Z,6.60
2023-02-02T03:09:03.824Z,6.70
2023-02-02T03:11:08.834Z,6.80
2023-02-02T03:13:13.867Z,6.80
2023-02-02T03:15:17.734Z,7.00
2023-02-02T03:17:20.431Z,7.00
2023-02-02T03:19:24.770Z,6.60
2023-02-02T03:21:27.507Z,6.60
2023-02-02T03:23:30.425Z,6.80
2023-02-02T03:25:33.240Z,6.60
2023-02-02T03:27:35.923Z,6.60
2023-02-02T03:29:38.663Z,6.70
2023-02-02T03:31:41.427Z,6.60
2023-02-02T03:33:44.356Z,6.80
2023-02-02T03:35:48.355Z,6.60
2023-02-02T03:37:51.085Z,6.80
2023-02-02T03:39:53.894Z,6.60
2023-02-02T03:41:56.691Z,6.70
2023-02-02T03:43:59.383Z,7.00
2023-02-02T03:46:04.264Z,6.80
2023-02-02T03:48:07.686Z,6.80
2023-02-02T03:50:11.554Z,7.00
2023-02-02T03:52:15.700Z,6.80
2023-02-02T03:54:18.417Z,6.90
2023-02-02T03:56:21.156Z,6.90
2023-02-02T03:58:23.873Z,6.80
2023-02-02T04:00:26.713Z,6.80
2023-02-02T04:02:29.503Z,6.80
2023-02-02T04:04:32.250Z,6.90
2023-02-02T04:06:35.016Z,6.70
2023-02-02T04:08:39.423Z,6.40
2023-02-02T04:10:43.386Z,6.60
2023-02-02T04:12:46.179Z,6.90
2023-02-02T04:14:48.977Z,6.50
2023-02-02T04:16:51.698Z,6.60
2023-02-02T04:18:54.774Z,6.70
2023-02-02T04:20:59.167Z,6.70
2023-02-02T04:23:02.023Z,6.50
2023-02-02T04:25:06.763Z,6.70
2023-02-02T04:27:09.484Z,6.70
2023-02-02T04:29:12.285Z,6.70
2023-02-02T04:31:15.064Z,6.70
2023-02-02T04:33:18.197Z,6.80
2023-02-02T04:35:20.955Z,6.80
2023-02-02T04:37:23.751Z,6.60
2023-02-02T04:39:26.549Z,6.60
2023-02-02T04:41:30.643Z,6.50
2023-02-02T04:43:34.672Z,6.60
2023-02-02T04:45:37.497Z,6.30
2023-02-02T04:47:40.305Z,6.30
2023-02-02T04:49:43.035Z,6.60
2023-02-02T04:51:45.790Z,6.50
2023-02-02T04:53:48.586Z,6.40
2023-02-02T04:55:51.310Z,6.50
2023-02-02T04:57:55.431Z,6.40
2023-02-02T04:59:58.175Z,6.30
2023-02-02T05:02:01.347Z,6.40
2023-02-02T05:04:04.130Z,6.50
2023-02-02T05:06:07.211Z,6.50
2023-02-02T05:08:11.970Z,6.30
2023-02-02T05:10:14.772Z,6.20
2023-02-02T05:12:17.506Z,6.50
2023-02-02T05:14:21.599Z,6.40
2023-02-02T05:16:27.051Z,6.40
2023-02-02T05:18:32.367Z,6.30
2023-02-02T05:20:35.134Z,6.60
2023-02-02T05:22:37.878Z,6.80
2023-02-02T05:24:40.655Z,6.80
2023-02-02T05:26:43.426Z,6.70
2023-02-02T05:28:46.418Z,6.80
2023-02-02T05:30:50.983Z,6.50
2023-02-02T05:32:53.750Z,6.90
2023-02-02T05:34:56.585Z,6.70
2023-02-02T05:36:59.389Z,6.80
2023-02-02T05:39:02.078Z,6.90
2023-02-02T05:41:05.395Z,6.80
2023-02-02T05:43:08.118Z,6.60
2023-02-02T05:45:12.049Z,6.80
2023-02-02T05:47:16.202Z,6.80
2023-02-02T05:49:19.037Z,6.70
2023-02-02T05:51:24.956Z,6.70
2023-02-02T05:53:29.400Z,6.80
2023-02-02T05:55:32.076Z,7.00
2023-02-02T05:57:35.000Z,7.00
2023-02-02T05:59:37.802Z,7.00
2023-02-02T06:01:40.564Z,6.80
2023-02-02T06:03:44.709Z,7.00
2023-02-02T06:05:47.591Z,7.00
2023-02-02T06:07:50.295Z,6.90
2023-02-02T06:09:53.053Z,6.50
2023-02-02T06:11:55.780Z,6.80
2023-02-02T06:13:58.610Z,6.70
2023-02-02T06:16:01.428Z,7.10
2023-02-02T06:18:06.169Z,7.30
2023-02-02T06:20:11.503Z,7.00
2023-02-02T06:22:14.222Z,7.30
2023-02-02T06:24:17.017Z,6.90
2023-02-02T06:26:19.925Z,7.00
2023-02-02T06:28:22.674Z,7.10
2023-02-02T06:30:25.768Z,7.20
2023-02-02T06:32:29.979Z,7.30
2023-02-02T06:34:32.719Z,7.10
2023-02-02T06:36:37.309Z,7.30
2023-02-02T06:38:40.086Z,7.50
2023-02-02T06:40:42.823Z,7.50
2023-02-02T06:42:45.524Z,7.40
2023-02-02T06:44:48.207Z,7.40
2023-02-02T06:46:51.051Z,7.30
2023-02-02T06:48:53.844Z,7.20
2023-02-02T06:50:59.138Z,7.30
2023-02-02T06:53:03.311Z,7.50
2023-02-02T06:55:06.629Z,7.70
2023-02-02T06:57:10.321Z,7.70
2023-02-02T06:59:13.109Z,7.80
2023-02-02T07:01:15.947Z,7.50
2023-02-02T07:03:21.268Z,7.60
2023-02-02T07:05:24.635Z,7.60
2023-02-02T07:07:27.521Z,7.40
2023-02-02T07:09:33.361Z,7.50
2023-02-02T07:11:37.607Z,7.30
2023-02-02T07:13:46.399Z,7.40
2023-02-02T07:15:49.736Z,7.50
2023-02-02T07:17:52.488Z,7.30
2023-02-02T07:19:55.183Z,7.40
2023-02-02T07:21:57.909Z,7.30
2023-02-02T07:24:00.618Z,7.30
2023-02-02T07:26:07.398Z,7.00
2023-02-02T07:28:10.141Z,6.90
2023-02-02T07:30:14.075Z,6.80
2023-02-02T07:32:16.943Z,6.80
2023-02-02T07:34:19.678Z,6.90
2023-02-02T07:36:24.561Z,6.80
2023-02-02T07:38:27.260Z,6.70
2023-02-02T07:40:30.050Z,6.80
2023-02-02T07:42:34.087Z,7.10
2023-02-02T07:44:36.778Z,7.10
2023-02-02T07:46:39.499Z,7.10
2023-02-02T07:48:42.774Z,7.20
2023-02-02T07:50:45.472Z,7.00
2023-02-02T07:52:48.195Z,6.70
2023-02-02T07:54:50.871Z,6.60
2023-02-02T07:56:53.625Z,6.30
2023-02-02T07:58:58.640Z,6.30
2023-02-02T08:01:03.001Z,5.90
2023-02-02T08:03:05.778Z,5.60
2023-02-02T08:05:09.042Z,5.80
2023-02-02T08:07:12.546Z,5.70
2023-02-02T08:09:16.447Z,5.70
2023-02-02T08:11:21.468Z,5.40
2023-02-02T08:13:24.289Z,5.60
2023-02-02T08:15:28.491Z,5.50
2023-02-02T08:17:31.275Z,5.60
2023-02-02T08:19:34.011Z,5.70
2023-02-02T08:21:37.109Z,5.30
2023-02-02T08:23:41.555Z,5.50
2023-02-02T08:25:44.315Z,5.40
2023-02-02T08:27:47.002Z,5.60
2023-02-02T08:29:49.712Z,5.50
2023-02-02T08:31:54.534Z,5.70
2023-02-02T08:33:58.796Z,5.50
2023-02-02T08:36:01.592Z,5.70
2023-02-02T08:38:05.364Z,5.70
2023-02-02T08:40:09.796Z,5.90
2023-02-02T08:42:12.522Z,5.60
2023-02-02T08:44:16.901Z,5.90
2023-02-02T08:46:21.851Z,5.70
2023-02-02T08:48:26.183Z,5.70
2023-02-02T08:50:28.972Z,5.70
2023-02-02T08:52:31.691Z,5.90
2023-02-02T08:54:34.410Z,5.90
2023-02-02T08:56:37.204Z,5.50
2023-02-02T08:58:40.601Z,5.70
2023-02-02T09:00:43.332Z,5.90
2023-02-02T09:02:46.093Z,5.90
2023-02-02T09:04:50.129Z,5.70
2023-02-02T09:06:52.860Z,5.90
2023-02-02T09:08:55.698Z,5.70
2023-02-02T09:11:03.284Z,5.90
2023-02-02T09:13:06.285Z,6.00
2023-02-02T09:15:09.572Z,6.10
2023-02-02T09:17:12.585Z,6.10
2023-02-02T09:19:15.344Z,5.90
2023-02-02T09:21:20.870Z,5.60
2023-02-02T09:23:23.580Z,5.70
2023-02-02T09:25:27.617Z,5.90
2023-02-02T09:27:30.536Z,5.70
2023-02-02T09:29:33.270Z,5.40
2023-02-02T09:31:37.873Z,5.60
2023-02-02T09:33:41.078Z,5.70
2023-02-02T09:35:43.798Z,6.00
2023-02-02T09:37:47.920Z,6.00
2023-02-02T09:39:50.647Z,5.80
2023-02-02T09:42:23.872Z,6.00
2023-02-02T09:44:45.370Z,6.00
2023-02-02T09:47:07.571Z,6.10
2023-02-02T09:49:14.592Z,6.20
2023-02-02T09:51:22.244Z,6.10
2023-02-02T09:53:38.481Z,6.30
2023-02-02T09:55:48.955Z,5.90
2023-02-02T09:57:54.123Z,6.00
2023-02-02T09:59:57.425Z,5.80
2023-02-02T10:02:07.806Z,5.90
2023-02-02T10:04:19.434Z,6.00
2023-02-02T10:06:31.773Z,5.90
2023-02-02T10:08:39.632Z,5.80
2023-02-02T10:10:46.613Z,6.00
2023-02-02T10:12:55.005Z,6.00
2023-02-02T10:15:05.212Z,6.30
2023-02-02T10:17:26.619Z,6.20
2023-02-02T10:19:30.737Z,6.20
2023-02-02T10:21:40.859Z,6.30
2023-02-02T10:23:46.047Z,6.50
2023-02-02T10:25:57.193Z,6.80
2023-02-02T10:28:07.646Z,6.90
2023-02-02T10:30:18.927Z,7.00
2023-02-02T10:32:26.238Z,6.90
2023-02-02T10:34:35.857Z,6.90
2023-02-02T10:36:53.499Z,6.80
2023-02-02T10:39:04.719Z,6.90
2023-02-02T10:41:16.180Z,6.70
2023-02-02T10:43:47.963Z,6.60
2023-02-02T10:45:52.514Z,6.50
2023-02-02T10:47:55.357Z,6.50
2023-02-02T10:50:08.854Z,6.10
2023-02-02T10:52:18.556Z,6.20
2023-02-02T10:54:55.896Z,6.20
2023-02-02T10:57:03.843Z,6.20
2023-02-02T10:59:08.761Z,6.40
2023-02-02T11:01:12.022Z,6.50
2023-02-02T11:03:17.042Z,6.60
2023-02-02T11:05:40.541Z,6.60
2023-02-02T11:07:43.335Z,6.50
2023-02-02T11:09:47.550Z,6.20
2023-02-02T11:11:55.360Z,6.20
2023-02-02T11:14:03.379Z,6.20
2023-02-02T11:16:21.608Z,6.20
2023-02-02T11:18:30.593Z,6.10
2023-02-02T11:20:37.194Z,6.30
2023-02-02T11:22:40.313Z,6.50
2023-02-02T11:24:49.793Z,6.60
2023-02-02T11:26:56.613Z,6.90
2023-02-02T11:29:01.011Z,6.80
2023-02-02T11:31:04.092Z,6.90
2023-02-02T11:33:26.928Z,6.60
2023-02-02T11:35:30.644Z,6.80
2023-02-02T11:37:35.207Z,6.80
2023-02-02T11:39:38.102Z,6.70
2023-02-02T11:41:42.915Z,6.80
2023-02-02T11:43:52.362Z,7.10
2023-02-02T11:45:58.645Z,6.70
2023-02-02T11:48:06.148Z,6.80
2023-02-02T11:50:20.463Z,6.90
2023-02-02T11:52:25.314Z,6.60
2023-02-02T11:54:33.101Z,6.40
2023-02-02T11:56:37.761Z,6.30
2023-02-02T11:58:47.187Z,6.20
2023-02-02T12:00:51.391Z,6.40
2023-02-02T12:02:54.078Z,6.40
2023-02-02T12:05:13.862Z,6.60
2023-02-02T12:07:20.560Z,6.60
2023-02-02T12:09:25.586Z,6.30
2023-02-02T12:11:38.841Z,6.40
2023-02-02T12:13:58.100Z,6.50
2023-02-02T12:16:11.016Z,6.40
2023-02-02T12:18:31.388Z,6.70
2023-02-02T12:20:44.497Z,6.90
2023-02-02T12:23:04.182Z,7.00
2023-02-02T12:25:38.016Z,7.10
2023-02-02T12:27:49.110Z,7.00
2023-02-02T12:30:13.442Z,7.20
2023-02-02T12:32:27.733Z,6.90
2023-02-02T12:34:40.688Z,6.90
2023-02-02T12:36:51.239Z,6.50
2023-02-02T12:39:11.144Z,6.70
2023-02-02T12:41:26.310Z,6.80
2023-02-02T12:43:38.688Z,6.90
2023-02-02T12:45:57.692Z,7.20
2023-02-02T12:48:13.854Z,7.00
2023-02-02T12:50:28.223Z,6.80
2023-02-02T12:52:53.411Z,6.70
2023-02-02T12:55:10.637Z,6.90
2023-02-02T12:57:20.048Z,7.10
2023-02-02T12:59:37.223Z,7.10
2023-02-02T13:02:01.070Z,7.20
2023-02-02T13:04:30.848Z,7.20
2023-02-02T13:07:03.555Z,7.20
2023-02-02T13:09:10.323Z,7.30
2023-02-02T13:11:30.593Z,7.30
2023-02-02T13:13:37.823Z,7.50
2023-02-02T13:15:43.782Z,7.40
2023-02-02T13:17:52.072Z,7.70
2023-02-02T13:19:58.880Z,7.30
2023-02-02T13:22:05.140Z,6.90
2023-02-02T13:24:13.774Z,6.80
2023-02-02T13:26:20.194Z,7.30
2023-02-02T13:28:36.260Z,7.60
2023-02-02T13:30:40.668Z,7.00
2023-02-02T13:32:47.378Z,7.10
2023-02-02T13:34:56.325Z,7.00
2023-02-02T13:37:07.638Z,7.00
2023-02-02T13:39:18.111Z,7.40
2023-02-02T13:41:21.038Z,7.50
2023-02-02T13:43:33.948Z,6.90
2023-02-02T13:45:43.366Z,7.00
2023-02-02T13:47:52.285Z,7.20
2023-02-02T13:50:04.431Z,7.50
2023-02-02T13:52:24.698Z,7.70
2023-02-02T13:54:49.202Z,7.50
2023-02-02T13:56:59.369Z,7.70
2023-02-02T13:59:29.855Z,7.90
2023-02-02T14:01:34.100Z,7.70
2023-02-02T14:03:40.089Z,7.30
2023-02-02T14:05:44.189Z,7.00
2023-02-02T14:07:48.118Z,7.40
2023-02-02T14:09:50.904Z,7.20
2023-02-02T14:11:58.160Z,7.50
2023-02-02T14:14:27.172Z,7.60
2023-02-02T14:16:50.758Z,7.80
2023-02-02T14:18:58.847Z,7.90
2023-02-02T14:21:02.889Z,8.00
2023-02-02T14:23:46.678Z,8.00
2023-02-02T14:26:06.585Z,7.70
2023-02-02T14:28:12.248Z,7.80
2023-02-02T14:30:21.752Z,7.60
2023-02-02T14:32:34.653Z,7.60
2023-02-02T14:34:39.364Z,7.40
2023-02-02T14:36:54.635Z,7.30
2023-02-02T14:39:07.986Z,7.20
2023-02-02T14:41:39.754Z,7.00
2023-02-02T14:43:49.511Z,7.00
2023-02-02T14:46:40.524Z,7.00
2023-02-02T14:48:47.045Z,6.90
2023-02-02T14:50:52.765Z,7.00
2023-02-02T14:53:01.532Z,7.00
2023-02-02T14:55:04.405Z,6.80
2023-02-02T14:57:24.489Z,6.50
2023-02-02T14:59:31.831Z,6.40
2023-02-02T15:01:36.952Z,6.80
2023-02-02T15:03:50.631Z,6.80
2023-02-02T15:06:04.489Z,7.00
2023-02-02T15:08:13.268Z,6.70
2023-02-02T15:11:27.796Z,6.70
2023-02-02T15:13:37.651Z,6.70
2023-02-02T15:15:43.635Z,6.90
2023-02-02T15:18:00.977Z,6.80
2023-02-02T15:20:13.327Z,7.00
2023-02-02T15:22:29.305Z,7.20
2023-02-02T15:24:36.161Z,7.10
2023-02-02T15:26:43.752Z,6.90
2023-02-02T15:28:55.707Z,6.70
2023-02-02T15:31:03.315Z,6.80
2023-02-02T15:33:16.351Z,6.70
2023-02-02T15:35:24.301Z,6.90
2023-02-02T15:37:31.724Z,6.40
2023-02-02T15:39:39.219Z,6.60
2023-02-02T15:41:45.242Z,6.50
2023-02-02T15:43:49.465Z,6.20
2023-02-02T15:45:55.020Z,6.30
2023-02-02T15:47:59.731Z,6.10
2023-02-02T15:50:02.902Z,5.90
2023-02-02T15:52:14.057Z,5.80
2023-02-02T15:54:28.190Z,5.90
2023-02-02T15:56:31.844Z,6.00
2023-02-02T15:58:40.447Z,6.20
2023-02-02T16:00:44.523Z,6.40
2023-02-02T16:02:48.685Z,6.60
2023-02-02T16:04:51.434Z,6.60
2023-02-02T16:06:55.861Z,6.60
2023-02-02T16:08:58.908Z,6.40
2023-02-02T16:11:13.225Z,6.60
2023-02-02T16:13:28.387Z,6.50
2023-02-02T16:15:32.870Z,6.40
2023-02-02T16:17:36.923Z,6.40
2023-02-02T16:19:41.938Z,6.50
2023-02-02T16:21:49.018Z,6.70
2023-02-02T16:23:53.479Z,6.90
2023-02-02T16:25:59.201Z,7.10
2023-02-02T16:28:03.352Z,7.20
2023-02-02T16:30:09.409Z,7.20
2023-02-02T16:32:28.017Z,7.20
2023-02-02T16:34:47.639Z,7.30
2023-02-02T16:37:06.863Z,7.20
2023-02-02T16:39:17.115Z,7.00
2023-02-02T16:41:28.383Z,7.10
2023-02-02T16:43:31.397Z,7.10
2023-02-02T16:45:36.647Z,6.90
2023-02-02T16:47:39.902Z,6.70
2023-02-02T16:49:42.613Z,6.90
2023-02-02T16:51:48.488Z,6.80
2023-02-02T16:53:59.144Z,6.70
2023-02-02T16:56:02.176Z,6.70
2023-02-02T16:58:04.951Z,6.50
2023-02-02T17:00:10.715Z,6.40
2023-02-02T17:02:23.977Z,6.40
2023-02-02T17:04:28.976Z,6.30
2023-02-02T17:06:50.185Z,6.30
2023-02-02T17:08:55.710Z,6.50
2023-02-02T17:11:09.080Z,6.40
2023-02-02T17:13:37.867Z,6.60
2023-02-02T17:15:40.565Z,6.50
2023-02-02T17:17:43.825Z,6.40
2023-02-02T17:19:47.744Z,6.30
2023-02-02T17:21:50.693Z,6.20
2023-02-02T17:23:55.274Z,6.30
2023-02-02T17:25:58.098Z,6.30
2023-02-02T17:28:01.830Z,6.30
2023-02-02T17:30:06.103Z,6.50
2023-02-02T17:32:10.271Z,6.60
2023-02-02T17:34:14.739Z,6.70
2023-02-02T17:36:17.484Z,6.70
2023-02-02T17:38:20.662Z,6.60
2023-02-02T17:40:25.375Z,6.70
2023-02-02T17:42:30.545Z,6.70
2023-02-02T17:44:33.668Z,6.70
2023-02-02T17:46:38.452Z,6.80
2023-02-02T17:48:42.848Z,6.70
2023-02-02T17:50:46.467Z,6.80
2023-02-02T17:52:50.193Z,6.80
2023-02-02T17:54:52.873Z,6.90
2023-02-02T17:56:57.059Z,6.90
2023-02-02T17:58:59.815Z,6.90
2023-02-02T18:01:03.104Z,7.00
2023-02-02T18:03:12.821Z,6.90
2023-02-02T18:05:16.657Z,6.70
2023-02-02T18:07:19.319Z,6.70
2023-02-02T18:09:22.057Z,6.70
2023-02-02T18:11:24.825Z,6.70
2023-02-02T18:13:28.993Z,6.80
2023-02-02T18:15:32.280Z,6.80
2023-02-02T18:17:35.847Z,6.70
2023-02-02T18:19:39.382Z,6.60
2023-02-02T18:21:42.232Z,6.60
2023-02-02T18:23:48.422Z,6.70
2023-02-02T18:25:52.785Z,6.80
2023-02-02T18:27:57.400Z,7.00
2023-02-02T18:30:01.698Z,7.10
2023-02-02T18:32:04.474Z,7.10
2023-02-02T18:34:07.203Z,7.20
2023-02-02T18:36:13.037Z,7.20
2023-02-02T18:38:15.778Z,7.20
2023-02-02T18:40:19.783Z,7.20
2023-02-02T18:42:24.465Z,7.20
2023-02-02T18:44:28.475Z,7.20
2023-02-02T18:46:33.962Z,7.30
2023-02-02T18:48:38.326Z,7.30
2023-02-02T18:50:41.190Z,7.30
2023-02-02T18:52:44.429Z,7.30
2023-02-02T18:54:48.693Z,7.30
2023-02-02T18:56:53.771Z,7.20
2023-02-02T18:58:56.852Z,7.20
2023-02-02T19:00:59.551Z,7.10
2023-02-02T19:03:03.674Z,7.10
2023-02-02T19:05:24.570Z,7.10
2023-02-02T19:07:45.038Z,7.20
2023-02-02T19:09:47.876Z,7.20
2023-02-02T19:11:54.791Z,7.20
2023-02-02T19:13:57.552Z,7.30
2023-02-02T19:16:01.231Z,7.20
2023-02-02T19:18:13.209Z,7.20
2023-02-02T19:20:26.047Z,7.10
2023-02-02T19:22:31.616Z,7.10
2023-02-02T19:24:38.363Z,7.10
2023-02-02T19:26:45.126Z,7.20
2023-02-02T19:28:48.123Z,7.20
2023-02-02T19:30:52.257Z,7.20
2023-02-02T19:32:55.171Z,7.20
2023-02-02T19:35:01.491Z,7.20
2023-02-02T19:37:19.247Z,7.20
2023-02-02T19:39:30.706Z,7.20
2023-02-02T19:41:33.447Z,7.20
2023-02-02T19:43:36.480Z,7.20
2023-02-02T19:45:40.526Z,7.20
2023-02-02T19:47:44.520Z,7.30
2023-02-02T19:49:47.288Z,7.30
2023-02-02T19:51:53.544Z,7.30
2023-02-02T19:54:01.267Z,7.30
2023-02-02T19:56:21.563Z,7.30
2023-02-02T19:58:25.994Z,7.20
2023-02-02T20:00:31.457Z,7.20
2023-02-02T20:02:44.346Z,7.30
2023-02-02T20:04:47.113Z,7.30
2023-02-02T20:06:59.146Z,7.20
2023-02-02T20:09:10.301Z,7.10
2023-02-02T20:11:30.528Z,7.10
2023-02-02T20:13:38.684Z,7.20
2023-02-02T20:15:41.510Z,7.20
2023-02-02T20:17:44.219Z,7.30
2023-02-02T20:19:47.290Z,7.30
2023-02-02T20:21:53.227Z,7.30
2023-02-02T20:23:56.023Z,7.30
2023-02-02T20:25:59.715Z,7.30
2023-02-02T20:28:17.175Z,7.20
2023-02-02T20:30:23.679Z,7.30
2023-02-02T20:32:30.194Z,7.20
2023-02-02T20:34:36.165Z,7.10
2023-02-02T20:36:42.907Z,7.10
2023-02-02T20:38:47.061Z,7.10
2023-02-02T20:40:49.913Z,7.20
2023-02-02T20:42:52.795Z,7.20
2023-02-02T20:44:55.718Z,7.20
2023-02-02T20:47:00.216Z,7.20
2023-02-02T20:49:05.464Z,7.20
2023-02-02T20:51:08.783Z,7.20
2023-02-02T20:53:14.681Z,7.20
2023-02-02T20:55:18.976Z,7.30
2023-02-02T20:57:21.671Z,7.30
2023-02-02T20:59:24.448Z,7.30
2023-02-02T21:01:27.557Z,7.30
2023-02-02T21:03:30.342Z,7.30
2023-02-02T21:05:33.062Z,7.40
2023-02-02T21:07:35.837Z,7.30
2023-02-02T21:09:38.539Z,7.40
2023-02-02T21:11:42.758Z,7.30
2023-02-02T21:13:45.484Z,7.30
2023-02-02T21:15:48.333Z,7.40
2023-02-02T21:17:51.022Z,7.40
2023-02-02T21:19:53.781Z,7.50
2023-02-02T21:21:56.844Z,7.50
2023-02-02T21:24:00.778Z,7.50
2023-02-02T21:26:03.995Z,7.50
2023-02-02T21:28:08.259Z,7.50
2023-02-02T21:30:13.204Z,7.50
2023-02-02T21:32:15.962Z,7.50
2023-02-02T21:34:20.225Z,7.50
2023-02-02T21:36:31.016Z,7.60
2023-02-02T21:38:33.759Z,7.60
2023-02-02T21:40:36.472Z,7.60
2023-02-02T21:42:39.236Z,7.70
2023-02-02T21:44:45.790Z,7.70
2023-02-02T21:46:50.898Z,7.70
2023-02-02T21:48:53.888Z,7.70
2023-02-02T21:50:57.711Z,7.70
2023-02-02T21:53:17.615Z,7.70
2023-02-02T21:55:33.401Z,7.70
2023-02-02T21:57:37.969Z,7.60
2023-02-02T21:59:40.675Z,7.50
2023-02-02T22:01:45.257Z,7.40
2023-02-02T22:03:49.828Z,7.40
2023-02-02T22:05:52.649Z,7.40
2023-02-02T22:07:59.610Z,7.50
2023-02-02T22:10:02.313Z,7.50
2023-02-02T22:12:16.189Z,7.50
2023-02-02T22:14:21.977Z,7.20
2023-02-02T22:16:24.887Z,7.30
2023-02-02T22:18:30.757Z,7.40
2023-02-02T22:20:35.888Z,7.50
2023-02-02T22:22:42.176Z,7.60
2023-02-02T22:24:47.124Z,7.30
2023-02-02T22:26:50.102Z,7.20
2023-02-02T22:28:52.779Z,7.40
2023-02-02T22:30:58.556Z,7.40
2023-02-02T22:33:01.416Z,7.50
2023-02-02T22:35:05.673Z,7.40
2023-02-02T22:37:08.361Z,7.50
2023-02-02T22:39:11.121Z,7.60
2023-02-02T22:41:13.878Z,7.60
2023-02-02T22:43:17.060Z,7.70
2023-02-02T22:45:19.934Z,7.80
2023-02-02T22:47:22.630Z,7.70
2023-02-02T22:49:25.366Z,7.70
2023-02-02T22:51:29.485Z,7.70
2023-02-02T22:53:32.475Z,7.80
2023-02-02T22:55:35.733Z,7.60
2023-02-02T22:57:38.912Z,7.70
2023-02-02T22:59:41.606Z,7.80
2023-02-02T23:01:44.332Z,7.50
2023-02-02T23:03:48.603Z,7.80
2023-02-02T23:05:53.385Z,8.00
2023-02-02T23:07:57.519Z,7.90
2023-02-02T23:10:00.415Z,8.00
2023-02-02T23:12:03.223Z,8.10
2023-02-02T23:14:05.983Z,8.30
2023-02-02T23:16:10.795Z,8.30
2023-02-02T23:18:13.571Z,8.40
2023-02-02T23:20:16.363Z,8.50
2023-02-02T23:22:19.071Z,8.70
2023-02-02T23:24:23.077Z,8.70
2023-02-02T23:26:25.811Z,8.60
2023-02-02T23:28:28.527Z,8.50
2023-02-02T23:30:31.311Z,8.30
2023-02-02T23:32:34.089Z,8.40
2023-02-02T23:34:36.763Z,8.40
2023-02-02T23:36:39.799Z,8.50
2023-02-02T23:38:42.461Z,8.50
2023-02-02T23:40:46.519Z,8.70
2023-02-02T23:42:49.230Z,8.80
2023-02-02T23:44:51.978Z,8.60
2023-02-02T23:46:55.124Z,8.60
2023-02-02T23:48:59.548Z,8.40
2023-02-02T23:51:02.582Z,8.40
2023-02-02T23:53:04.720Z,8.50
2023-02-02T23:55:09.158Z,8.60
2023-02-02T23:57:13.265Z,8.60
2023-02-02T23:59:15.953Z,8.50
